sensor_id;sensor_type;location;lat;lon;timestamp;pressure;altitude;pressure_sealevel;temperature;humidity
26865;BME280;40618;51.166;10.322;2023-04-08T00:01:42;97800.88;;;5.79;54.79
26865;BME280;40618;51.166;10.322;2023-04-08T00:04:08;97800.88;;;5.79;54.79
26865;BME280;40618;51.166;10.322;2023-04-08T00:06:34;97796.63;;;5.75;54.98
26865;BME280;40618;51.166;10.322;2023-04-08T00:08:59;97788.06;;;5.70;54.57
26865;BME280;40618;51.166;10.322;2023-04-08T00:11:25;97797.50;;;5.69;54.61
26865;BME280;40618;51.166;10.322;2023-04-08T00:13:51;97793.22;;;5.68;54.88
26865;BME280;40618;51.166;10.322;2023-04-08T00:16:16;97786.38;;;5.70;54.99
26865;BME280;40618;51.166;10.322;2023-04-08T00:18:42;97784.63;;;5.71;54.88
26865;BME280;40618;51.166;10.322;2023-04-08T00:21:07;97782.09;;;5.69;55.02
26865;BME280;40618;51.166;10.322;2023-04-08T00:23:33;97777.81;;;5.68;55.08
26865;BME280;40618;51.166;10.322;2023-04-08T00:25:59;97781.25;;;5.67;55.05
26865;BME280;40618;51.166;10.322;2023-04-08T00:28:25;97780.41;;;5.65;54.79
26865;BME280;40618;51.166;10.322;2023-04-08T00:30:52;97782.94;;;5.67;54.99
26865;BME280;40618;51.166;10.322;2023-04-08T00:33:17;97785.50;;;5.71;55.01
26865;BME280;40618;51.166;10.322;2023-04-08T00:35:43;97788.91;;;5.73;55.09
26865;BME280;40618;51.166;10.322;2023-04-08T00:38:10;97798.34;;;5.73;55.13
26865;BME280;40618;51.166;10.322;2023-04-08T00:40:36;97790.63;;;5.70;55.04
26865;BME280;40618;51.166;10.322;2023-04-08T00:43:02;97792.38;;;5.66;54.81
26865;BME280;40618;51.166;10.322;2023-04-08T00:45:27;97795.81;;;5.65;54.89
26865;BME280;40618;51.166;10.322;2023-04-08T00:47:53;97794.09;;;5.67;55.24
26865;BME280;40618;51.166;10.322;2023-04-08T00:50:20;97788.94;;;5.69;55.15
26865;BME280;40618;51.166;10.322;2023-04-08T00:52:46;97786.38;;;5.66;55.17
26865;BME280;40618;51.166;10.322;2023-04-08T00:55:11;97791.53;;;5.67;55.22
26865;BME280;40618;51.166;10.322;2023-04-08T00:57:37;97794.97;;;5.66;55.40
26865;BME280;40618;51.166;10.322;2023-04-08T01:00:03;97787.28;;;5.63;55.52
26865;BME280;40618;51.166;10.322;2023-04-08T01:05:26;97794.97;;;5.60;55.51
26865;BME280;40618;51.166;10.322;2023-04-08T01:07:58;97789.00;;;5.58;55.60
26865;BME280;40618;51.166;10.322;2023-04-08T01:10:32;97795.84;;;5.61;55.68
26865;BME280;40618;51.166;10.322;2023-04-08T01:13:03;97784.69;;;5.63;55.86
26865;BME280;40618;51.166;10.322;2023-04-08T01:15:35;97793.25;;;5.65;55.57
26865;BME280;40618;51.166;10.322;2023-04-08T01:18:06;97792.41;;;5.63;55.73
26865;BME280;40618;51.166;10.322;2023-04-08T01:20:34;97782.13;;;5.60;55.29
26865;BME280;40618;51.166;10.322;2023-04-08T01:25:34;97783.88;;;5.53;55.53
26865;BME280;40618;51.166;10.322;2023-04-08T01:28:07;97777.91;;;5.47;55.95
26865;BME280;40618;51.166;10.322;2023-04-08T01:30:38;97780.47;;;5.47;55.74
26865;BME280;40618;51.166;10.322;2023-04-08T01:33:05;97772.75;;;5.47;56.04
26865;BME280;40618;51.166;10.322;2023-04-08T01:35:32;97777.91;;;5.50;56.11
26865;BME280;40618;51.166;10.322;2023-04-08T01:37:58;97772.78;;;5.48;56.24
26865;BME280;40618;51.166;10.322;2023-04-08T01:40:25;97775.34;;;5.51;56.32
26865;BME280;40618;51.166;10.322;2023-04-08T01:42:54;97771.88;;;5.51;56.22
26865;BME280;40618;51.166;10.322;2023-04-08T01:45:22;97774.50;;;5.45;56.40
26865;BME280;40618;51.166;10.322;2023-04-08T01:47:49;97778.78;;;5.41;56.27
26865;BME280;40618;51.166;10.322;2023-04-08T01:50:16;97781.38;;;5.39;56.70
26865;BME280;40618;51.166;10.322;2023-04-08T01:52:43;97779.66;;;5.38;57.10
26865;BME280;40618;51.166;10.322;2023-04-08T01:55:10;97783.91;;;5.42;56.76
26865;BME280;40618;51.166;10.322;2023-04-08T01:57:37;97784.78;;;5.45;56.62
26865;BME280;40618;51.166;10.322;2023-04-08T02:00:08;97783.94;;;5.46;56.83
26865;BME280;40618;51.166;10.322;2023-04-08T02:02:35;97783.03;;;5.47;56.87
26865;BME280;40618;51.166;10.322;2023-04-08T02:05:02;97789.00;;;5.53;57.30
26865;BME280;40618;51.166;10.322;2023-04-08T02:07:28;97792.47;;;5.52;57.30
26865;BME280;40618;51.166;10.322;2023-04-08T02:09:55;97797.56;;;5.55;56.93
26865;BME280;40618;51.166;10.322;2023-04-08T02:12:21;97782.16;;;5.55;57.25
26865;BME280;40618;51.166;10.322;2023-04-08T02:14:47;97779.59;;;5.51;56.79
26865;BME280;40618;51.166;10.322;2023-04-08T02:17:22;97781.34;;;5.49;56.82
26865;BME280;40618;51.166;10.322;2023-04-08T02:20:09;97783.06;;;5.50;57.37
26865;BME280;40618;51.166;10.322;2023-04-08T02:23:18;97784.75;;;5.52;57.24
26865;BME280;40618;51.166;10.322;2023-04-08T02:25:46;97778.72;;;5.53;57.46
26865;BME280;40618;51.166;10.322;2023-04-08T02:28:14;97783.88;;;5.56;57.65
26865;BME280;40618;51.166;10.322;2023-04-08T02:30:49;97780.41;;;5.57;57.69
26865;BME280;40618;51.166;10.322;2023-04-08T02:33:18;97779.56;;;5.58;57.70
26865;BME280;40618;51.166;10.322;2023-04-08T02:35:48;97780.41;;;5.59;57.78
26865;BME280;40618;51.166;10.322;2023-04-08T02:38:15;97782.97;;;5.59;57.87
26865;BME280;40618;51.166;10.322;2023-04-08T02:40:41;97777.00;;;5.57;57.91
26865;BME280;40618;51.166;10.322;2023-04-08T02:43:07;97788.13;;;5.56;58.36
26865;BME280;40618;51.166;10.322;2023-04-08T02:45:42;97784.75;;;5.54;58.42
26865;BME280;40618;51.166;10.322;2023-04-08T02:48:09;97779.59;;;5.54;58.35
26865;BME280;40618;51.166;10.322;2023-04-08T02:50:35;97773.59;;;5.55;58.58
26865;BME280;40618;51.166;10.322;2023-04-08T02:53:01;97786.41;;;5.61;58.81
26865;BME280;40618;51.166;10.322;2023-04-08T02:55:27;97783.00;;;5.61;58.67
26865;BME280;40618;51.166;10.322;2023-04-08T02:57:53;97785.56;;;5.56;58.79
26865;BME280;40618;51.166;10.322;2023-04-08T03:00:18;97780.47;;;5.50;59.07
26865;BME280;40618;51.166;10.322;2023-04-08T03:02:44;97781.34;;;5.42;58.80
26865;BME280;40618;51.166;10.322;2023-04-08T03:05:10;97785.69;;;5.31;59.08
26865;BME280;40618;51.166;10.322;2023-04-08T03:07:36;97796.81;;;5.27;59.04
26865;BME280;40618;51.166;10.322;2023-04-08T03:10:03;97786.53;;;5.30;59.54
26865;BME280;40618;51.166;10.322;2023-04-08T03:12:29;97790.78;;;5.34;59.68
26865;BME280;40618;51.166;10.322;2023-04-08T03:14:55;97792.50;;;5.38;59.77
26865;BME280;40618;51.166;10.322;2023-04-08T03:17:21;97793.34;;;5.40;59.84
26865;BME280;40618;51.166;10.322;2023-04-08T03:19:46;97795.06;;;5.41;59.80
26865;BME280;40618;51.166;10.322;2023-04-08T03:22:12;97797.63;;;5.41;59.89
26865;BME280;40618;51.166;10.322;2023-04-08T03:24:38;97796.75;;;5.41;60.04
26865;BME280;40618;51.166;10.322;2023-04-08T03:27:04;97799.34;;;5.38;60.01
26865;BME280;40618;51.166;10.322;2023-04-08T03:29:30;97786.53;;;5.35;60.21
26865;BME280;40618;51.166;10.322;2023-04-08T03:31:56;97806.22;;;5.31;60.41
26865;BME280;40618;51.166;10.322;2023-04-08T03:34:22;97801.94;;;5.33;60.66
26865;BME280;40618;51.166;10.322;2023-04-08T03:36:47;97801.06;;;5.34;60.84
26865;BME280;40618;51.166;10.322;2023-04-08T03:39:13;97805.34;;;5.34;60.73
26865;BME280;40618;51.166;10.322;2023-04-08T03:41:39;97808.78;;;5.31;60.32
26865;BME280;40618;51.166;10.322;2023-04-08T03:44:04;97803.66;;;5.31;60.64
26865;BME280;40618;51.166;10.322;2023-04-08T03:46:30;97809.63;;;5.30;60.49
26865;BME280;40618;51.166;10.322;2023-04-08T03:48:56;97812.22;;;5.27;60.93
26865;BME280;40618;51.166;10.322;2023-04-08T03:51:21;97802.81;;;5.29;61.19
26865;BME280;40618;51.166;10.322;2023-04-08T03:53:47;97807.09;;;5.33;61.03
26865;BME280;40618;51.166;10.322;2023-04-08T03:56:13;97804.53;;;5.33;60.68
26865;BME280;40618;51.166;10.322;2023-04-08T03:58:39;97803.63;;;5.34;60.99
26865;BME280;40618;51.166;10.322;2023-04-08T04:01:05;97804.53;;;5.27;61.33
26865;BME280;40618;51.166;10.322;2023-04-08T04:03:30;97809.66;;;5.27;61.39
26865;BME280;40618;51.166;10.322;2023-04-08T04:05:56;97808.81;;;5.30;61.21
26865;BME280;40618;51.166;10.322;2023-04-08T04:08:21;97813.09;;;5.29;61.20
26865;BME280;40618;51.166;10.322;2023-04-08T04:10:47;97809.69;;;5.21;61.44
26865;BME280;40618;51.166;10.322;2023-04-08T04:13:13;97819.09;;;5.19;61.30
26865;BME280;40618;51.166;10.322;2023-04-08T04:15:39;97819.09;;;5.20;61.27
26865;BME280;40618;51.166;10.322;2023-04-08T04:18:06;97830.22;;;5.24;61.58
26865;BME280;40618;51.166;10.322;2023-04-08T04:20:32;97827.63;;;5.27;61.50
26865;BME280;40618;51.166;10.322;2023-04-08T04:22:57;97833.63;;;5.29;61.84
26865;BME280;40618;51.166;10.322;2023-04-08T04:25:23;97835.31;;;5.29;61.54
26865;BME280;40618;51.166;10.322;2023-04-08T04:27:49;97833.63;;;5.23;61.77
26865;BME280;40618;51.166;10.322;2023-04-08T04:30:15;97831.91;;;5.23;61.46
26865;BME280;40618;51.166;10.322;2023-04-08T04:32:41;97834.50;;;5.27;61.34
26865;BME280;40618;51.166;10.322;2023-04-08T04:35:11;97837.03;;;5.31;61.54
26865;BME280;40618;51.166;10.322;2023-04-08T04:37:37;97847.28;;;5.33;61.63
26865;BME280;40618;51.166;10.322;2023-04-08T04:40:03;97843.03;;;5.30;61.57
26865;BME280;40618;51.166;10.322;2023-04-08T04:42:30;97845.59;;;5.30;61.31
26865;BME280;40618;51.166;10.322;2023-04-08T04:44:57;97852.47;;;5.28;61.66
26865;BME280;40618;51.166;10.322;2023-04-08T04:47:23;97851.59;;;5.23;61.08
26865;BME280;40618;51.166;10.322;2023-04-08T04:49:49;97853.34;;;5.21;61.43
26865;BME280;40618;51.166;10.322;2023-04-08T04:52:15;97851.63;;;5.17;61.61
26865;BME280;40618;51.166;10.322;2023-04-08T04:54:40;97842.22;;;5.11;61.10
26865;BME280;40618;51.166;10.322;2023-04-08T04:57:06;97845.66;;;5.12;61.71
26865;BME280;40618;51.166;10.322;2023-04-08T04:59:31;97854.19;;;5.14;61.24
26865;BME280;40618;51.166;10.322;2023-04-08T05:01:57;97851.63;;;5.11;61.44
26865;BME280;40618;51.166;10.322;2023-04-08T05:04:23;97842.22;;;5.11;61.76
26865;BME280;40618;51.166;10.322;2023-04-08T05:06:50;97854.19;;;5.12;61.69
26865;BME280;40618;51.166;10.322;2023-04-08T05:09:15;97862.75;;;5.09;61.19
26865;BME280;40618;51.166;10.322;2023-04-08T05:11:41;97857.59;;;5.11;61.45
26865;BME280;40618;51.166;10.322;2023-04-08T05:14:07;97860.19;;;5.11;61.49
26865;BME280;40618;51.166;10.322;2023-04-08T05:16:33;97866.19;;;5.13;62.28
26865;BME280;40618;51.166;10.322;2023-04-08T05:18:58;97864.47;;;5.11;61.32
26865;BME280;40618;51.166;10.322;2023-04-08T05:21:24;97872.19;;;5.06;61.55
26865;BME280;40618;51.166;10.322;2023-04-08T05:23:51;97869.63;;;5.04;61.86
26865;BME280;40618;51.166;10.322;2023-04-08T05:26:20;97870.47;;;5.03;61.93
26865;BME280;40618;51.166;10.322;2023-04-08T05:28:47;97867.91;;;5.02;61.86
26865;BME280;40618;51.166;10.322;2023-04-08T05:31:17;97866.19;;;5.01;61.70
26865;BME280;40618;51.166;10.322;2023-04-08T05:33:43;97870.50;;;5.00;62.21
26865;BME280;40618;51.166;10.322;2023-04-08T05:36:10;97866.19;;;5.02;62.20
26865;BME280;40618;51.166;10.322;2023-04-08T05:38:36;97879.03;;;5.02;62.18
26865;BME280;40618;51.166;10.322;2023-04-08T05:41:02;97869.59;;;5.01;62.57
26865;BME280;40618;51.166;10.322;2023-04-08T05:43:28;97870.50;;;4.91;62.26
26865;BME280;40618;51.166;10.322;2023-04-08T05:45:54;97879.03;;;4.90;62.64
26865;BME280;40618;51.166;10.322;2023-04-08T05:48:20;97873.91;;;4.91;62.85
26865;BME280;40618;51.166;10.322;2023-04-08T05:50:45;97877.34;;;4.95;63.13
26865;BME280;40618;51.166;10.322;2023-04-08T05:53:13;97878.16;;;4.97;63.12
26865;BME280;40618;51.166;10.322;2023-04-08T05:55:39;97883.31;;;4.97;63.23
26865;BME280;40618;51.166;10.322;2023-04-08T05:58:06;97881.59;;;4.98;63.63
26865;BME280;40618;51.166;10.322;2023-04-08T06:00:32;97890.16;;;4.98;63.28
26865;BME280;40618;51.166;10.322;2023-04-08T06:02:58;97880.75;;;5.00;64.00
26865;BME280;40618;51.166;10.322;2023-04-08T06:05:23;97881.59;;;5.01;63.95
26865;BME280;40618;51.166;10.322;2023-04-08T06:07:49;97892.72;;;5.00;64.05
26865;BME280;40618;51.166;10.322;2023-04-08T06:10:15;97896.13;;;4.97;64.25
26865;BME280;40618;51.166;10.322;2023-04-08T06:12:41;97890.16;;;4.97;64.04
26865;BME280;40618;51.166;10.322;2023-04-08T06:15:07;97893.56;;;4.97;64.72
26865;BME280;40618;51.166;10.322;2023-04-08T06:17:37;97891.88;;;4.98;64.77
26865;BME280;40618;51.166;10.322;2023-04-08T06:20:05;97897.00;;;4.98;64.20
26865;BME280;40618;51.166;10.322;2023-04-08T06:22:31;97896.16;;;4.94;64.28
26865;BME280;40618;51.166;10.322;2023-04-08T06:24:57;97900.44;;;4.95;64.97
26865;BME280;40618;51.166;10.322;2023-04-08T06:27:22;97907.28;;;4.98;64.92
26865;BME280;40618;51.166;10.322;2023-04-08T06:29:48;97908.13;;;4.95;65.20
26865;BME280;40618;51.166;10.322;2023-04-08T06:32:13;97906.41;;;4.91;64.99
26865;BME280;40618;51.166;10.322;2023-04-08T06:34:39;97908.97;;;4.91;65.05
26865;BME280;40618;51.166;10.322;2023-04-08T06:37:06;97910.69;;;4.90;65.29
26865;BME280;40618;51.166;10.322;2023-04-08T06:39:32;97917.50;;;4.95;65.34
26865;BME280;40618;51.166;10.322;2023-04-08T06:41:58;97921.81;;;4.94;65.80
26865;BME280;40618;51.166;10.322;2023-04-08T06:44:23;97929.50;;;4.93;65.80
26865;BME280;40618;51.166;10.322;2023-04-08T06:46:49;97921.81;;;4.94;65.86
26865;BME280;40618;51.166;10.322;2023-04-08T06:49:15;97931.22;;;4.98;65.92
26865;BME280;40618;51.166;10.322;2023-04-08T06:51:40;97929.53;;;5.00;66.22
26865;BME280;40618;51.166;10.322;2023-04-08T06:54:06;97932.06;;;5.05;65.88
26865;BME280;40618;51.166;10.322;2023-04-08T06:56:34;97935.50;;;5.08;66.50
26865;BME280;40618;51.166;10.322;2023-04-08T06:59:00;97938.06;;;5.10;66.12
26865;BME280;40618;51.166;10.322;2023-04-08T07:01:25;97933.78;;;5.09;66.18
26865;BME280;40618;51.166;10.322;2023-04-08T07:03:51;97944.03;;;5.11;65.99
26865;BME280;40618;51.166;10.322;2023-04-08T07:06:17;97942.34;;;5.08;66.26
26865;BME280;40618;51.166;10.322;2023-04-08T07:08:42;97945.75;;;5.04;66.59
26865;BME280;40618;51.166;10.322;2023-04-08T07:11:08;97957.75;;;5.00;66.08
26865;BME280;40618;51.166;10.322;2023-04-08T07:13:33;97961.16;;;5.02;66.76
26865;BME280;40618;51.166;10.322;2023-04-08T07:15:59;97966.28;;;5.05;66.40
26865;BME280;40618;51.166;10.322;2023-04-08T07:18:25;97966.31;;;5.08;66.63
26865;BME280;40618;51.166;10.322;2023-04-08T07:20:54;97962.00;;;5.11;66.56
26865;BME280;40618;51.166;10.322;2023-04-08T07:23:20;97970.56;;;5.11;66.55
26865;BME280;40618;51.166;10.322;2023-04-08T07:25:46;97962.88;;;5.13;66.53
26865;BME280;40618;51.166;10.322;2023-04-08T07:28:12;97970.59;;;5.13;66.41
26865;BME280;40618;51.166;10.322;2023-04-08T07:30:38;97967.16;;;5.12;66.59
26865;BME280;40618;51.166;10.322;2023-04-08T07:33:03;97974.00;;;5.13;66.89
26865;BME280;40618;51.166;10.322;2023-04-08T07:35:29;97975.72;;;5.13;67.05
26865;BME280;40618;51.166;10.322;2023-04-08T07:37:56;97977.41;;;5.15;66.84
26865;BME280;40618;51.166;10.322;2023-04-08T07:40:22;97974.84;;;5.11;66.99
26865;BME280;40618;51.166;10.322;2023-04-08T07:42:48;97974.88;;;5.04;67.09
26865;BME280;40618;51.166;10.322;2023-04-08T07:45:14;97990.25;;;5.01;66.88
26865;BME280;40618;51.166;10.322;2023-04-08T07:47:40;97985.97;;;5.02;67.34
26865;BME280;40618;51.166;10.322;2023-04-08T07:50:06;97985.13;;;5.04;67.19
26865;BME280;40618;51.166;10.322;2023-04-08T07:52:33;97993.69;;;5.03;67.15
26865;BME280;40618;51.166;10.322;2023-04-08T07:54:58;98000.53;;;5.04;67.34
26865;BME280;40618;51.166;10.322;2023-04-08T07:57:25;97993.69;;;5.05;67.66
26865;BME280;40618;51.166;10.322;2023-04-08T07:59:51;97992.81;;;5.07;67.70
26865;BME280;40618;51.166;10.322;2023-04-08T08:02:16;98003.09;;;5.07;67.66
26865;BME280;40618;51.166;10.322;2023-04-08T08:04:42;97998.81;;;5.09;67.43
26865;BME280;40618;51.166;10.322;2023-04-08T08:07:08;98009.09;;;5.13;67.49
26865;BME280;40618;51.166;10.322;2023-04-08T08:09:33;97999.66;;;5.15;67.62
26865;BME280;40618;51.166;10.322;2023-04-08T08:11:59;98003.09;;;5.09;67.67
26865;BME280;40618;51.166;10.322;2023-04-08T08:14:25;98004.78;;;5.04;67.79
26865;BME280;40618;51.166;10.322;2023-04-08T08:16:51;97998.81;;;5.03;67.51
26865;BME280;40618;51.166;10.322;2023-04-08T08:19:19;97997.09;;;5.10;67.63
26865;BME280;40618;51.166;10.322;2023-04-08T08:21:45;98003.06;;;5.15;67.67
26865;BME280;40618;51.166;10.322;2023-04-08T08:24:10;98009.06;;;5.20;68.13
26865;BME280;40618;51.166;10.322;2023-04-08T08:26:36;98004.81;;;5.25;68.00
26865;BME280;40618;51.166;10.322;2023-04-08T08:29:03;98012.50;;;5.30;67.97
26865;BME280;40618;51.166;10.322;2023-04-08T08:31:30;98021.06;;;5.35;68.18
26865;BME280;40618;51.166;10.322;2023-04-08T08:33:56;98017.66;;;5.36;67.70
26865;BME280;40618;51.166;10.322;2023-04-08T08:36:21;98017.63;;;5.38;67.77
26865;BME280;40618;51.166;10.322;2023-04-08T08:38:47;98012.50;;;5.39;68.04
26865;BME280;40618;51.166;10.322;2023-04-08T08:41:13;98019.38;;;5.37;68.07
26865;BME280;40618;51.166;10.322;2023-04-08T08:43:39;98025.34;;;5.38;68.12
26865;BME280;40618;51.166;10.322;2023-04-08T08:46:09;98026.19;;;5.34;68.17
26865;BME280;40618;51.166;10.322;2023-04-08T08:48:36;98029.63;;;5.34;67.89
26865;BME280;40618;51.166;10.322;2023-04-08T08:51:07;98037.34;;;5.40;68.40
26865;BME280;40618;51.166;10.322;2023-04-08T08:53:34;98031.34;;;5.41;68.12
26865;BME280;40618;51.166;10.322;2023-04-08T08:55:59;98045.03;;;5.39;68.04
26865;BME280;40618;51.166;10.322;2023-04-08T08:58:26;98035.63;;;5.38;68.57
26865;BME280;40618;51.166;10.322;2023-04-08T09:00:52;98042.47;;;5.36;68.37
26865;BME280;40618;51.166;10.322;2023-04-08T09:03:25;98039.91;;;5.36;68.25
26865;BME280;40618;51.166;10.322;2023-04-08T09:06:00;98045.91;;;5.36;68.53
26865;BME280;40618;51.166;10.322;2023-04-08T09:08:33;98055.31;;;5.37;68.22
26865;BME280;40618;51.166;10.322;2023-04-08T09:11:15;98061.31;;;5.38;68.62
26865;BME280;40618;51.166;10.322;2023-04-08T09:13:43;98054.47;;;5.41;68.65
26865;BME280;40618;51.166;10.322;2023-04-08T09:16:11;98052.72;;;5.43;68.67
26865;BME280;40618;51.166;10.322;2023-04-08T09:18:40;98055.28;;;5.47;68.75
26865;BME280;40618;51.166;10.322;2023-04-08T09:21:11;98053.59;;;5.47;68.81
26865;BME280;40618;51.166;10.322;2023-04-08T09:23:47;98058.72;;;5.52;68.71
26865;BME280;40618;51.166;10.322;2023-04-08T09:26:21;98056.19;;;5.56;68.88
26865;BME280;40618;51.166;10.322;2023-04-08T09:31:33;98062.16;;;5.51;68.84
26865;BME280;40618;51.166;10.322;2023-04-08T09:34:11;98077.56;;;5.45;68.99
26865;BME280;40618;51.166;10.322;2023-04-08T09:36:39;98067.28;;;5.46;69.04
26865;BME280;40618;51.166;10.322;2023-04-08T09:39:05;98063.88;;;5.46;68.99
26865;BME280;40618;51.166;10.322;2023-04-08T09:41:35;98077.56;;;5.48;69.14
26865;BME280;40618;51.166;10.322;2023-04-08T09:44:05;98064.72;;;5.45;69.37
26865;BME280;40618;51.166;10.322;2023-04-08T09:52:32;98066.44;;;5.52;69.53
26865;BME280;40618;51.166;10.322;2023-04-08T09:55:02;98071.56;;;5.52;69.63
26865;BME280;40618;51.166;10.322;2023-04-08T09:57:45;98069.00;;;5.50;69.35
26865;BME280;40618;51.166;10.322;2023-04-08T10:00:39;98075.00;;;5.51;69.46
26865;BME280;40618;51.166;10.322;2023-04-08T10:03:26;98076.72;;;5.50;69.52
26865;BME280;40618;51.166;10.322;2023-04-08T10:05:57;98074.16;;;5.47;69.28
26865;BME280;40618;51.166;10.322;2023-04-08T10:08:26;98077.59;;;5.52;69.59
26865;BME280;40618;51.166;10.322;2023-04-08T10:10:53;98078.44;;;5.54;69.33
26865;BME280;40618;51.166;10.322;2023-04-08T10:13:20;98076.72;;;5.59;70.06
26865;BME280;40618;51.166;10.322;2023-04-08T10:15:47;98084.41;;;5.66;69.88
26865;BME280;40618;51.166;10.322;2023-04-08T10:23:08;98074.13;;;5.73;69.71
26865;BME280;40618;51.166;10.322;2023-04-08T10:25:47;98074.13;;;5.73;69.96
26865;BME280;40618;51.166;10.322;2023-04-08T10:30:52;98071.56;;;5.80;69.87
26865;BME280;40618;51.166;10.322;2023-04-08T10:33:33;98076.72;;;5.83;69.75
26865;BME280;40618;51.166;10.322;2023-04-08T10:38:33;98081.81;;;5.90;69.84
26865;BME280;40618;51.166;10.322;2023-04-08T10:40:59;98094.69;;;5.92;69.77
26865;BME280;40618;51.166;10.322;2023-04-08T10:43:30;98087.81;;;5.94;70.08
26865;BME280;40618;51.166;10.322;2023-04-08T10:46:00;98094.69;;;6.00;69.85
26865;BME280;40618;51.166;10.322;2023-04-08T10:48:26;98085.28;;;6.02;70.18
26865;BME280;40618;51.166;10.322;2023-04-08T10:53:30;98092.13;;;6.09;70.01
26865;BME280;40618;51.166;10.322;2023-04-08T10:56:10;98096.38;;;6.15;70.24
26865;BME280;40618;51.166;10.322;2023-04-08T10:58:51;98092.13;;;6.17;69.83
26865;BME280;40618;51.166;10.322;2023-04-08T11:01:20;98091.22;;;6.18;70.06
26865;BME280;40618;51.166;10.322;2023-04-08T11:03:47;98086.09;;;6.21;70.32
26865;BME280;40618;51.166;10.322;2023-04-08T11:06:13;98084.38;;;6.20;70.11
26865;BME280;40618;51.166;10.322;2023-04-08T11:08:40;98077.50;;;6.22;69.85
26865;BME280;40618;51.166;10.322;2023-04-08T11:11:06;98077.53;;;6.25;70.28
26865;BME280;40618;51.166;10.322;2023-04-08T11:13:36;98085.22;;;6.28;70.04
26865;BME280;40618;51.166;10.322;2023-04-08T11:16:06;98084.38;;;6.28;70.22
26865;BME280;40618;51.166;10.322;2023-04-08T11:18:39;98087.78;;;6.28;70.23
26865;BME280;40618;51.166;10.322;2023-04-08T11:21:08;98089.50;;;6.32;70.50
26865;BME280;40618;51.166;10.322;2023-04-08T11:23:35;98086.91;;;6.38;70.60
26865;BME280;40618;51.166;10.322;2023-04-08T11:26:02;98082.59;;;6.47;70.53
26865;BME280;40618;51.166;10.322;2023-04-08T11:28:28;98085.97;;;6.53;70.36
26865;BME280;40618;51.166;10.322;2023-04-08T11:30:54;98075.72;;;6.55;70.33
26865;BME280;40618;51.166;10.322;2023-04-08T11:33:20;98080.81;;;6.59;70.55
26865;BME280;40618;51.166;10.322;2023-04-08T11:35:49;98075.66;;;6.61;70.03
26865;BME280;40618;51.166;10.322;2023-04-08T11:38:16;98073.03;;;6.72;70.66
26865;BME280;40618;51.166;10.322;2023-04-08T11:40:56;98074.69;;;6.87;70.40
26865;BME280;40618;51.166;10.322;2023-04-08T11:43:23;98066.94;;;6.93;70.35
26865;BME280;40618;51.166;10.322;2023-04-08T11:45:49;98071.22;;;6.94;69.96
26865;BME280;40618;51.166;10.322;2023-04-08T11:48:15;98062.59;;;7.04;70.49
26865;BME280;40618;51.166;10.322;2023-04-08T11:50:43;98060.81;;;7.14;70.41
26865;BME280;40618;51.166;10.322;2023-04-08T11:53:20;98073.63;;;7.20;70.31
26865;BME280;40618;51.166;10.322;2023-04-08T11:55:49;98072.69;;;7.32;70.52
26865;BME280;40618;51.166;10.322;2023-04-08T11:58:15;98069.19;;;7.39;70.64
26865;BME280;40618;51.166;10.322;2023-04-08T12:00:41;98073.47;;;7.45;70.23
26865;BME280;40618;51.166;10.322;2023-04-08T12:03:08;98076.88;;;7.49;70.17
26865;BME280;40618;51.166;10.322;2023-04-08T12:05:34;98079.41;;;7.50;69.75
26865;BME280;40618;51.166;10.322;2023-04-08T12:08:00;98076.88;;;7.47;70.23
26865;BME280;40618;51.166;10.322;2023-04-08T12:10:26;98079.53;;;7.36;69.94
26865;BME280;40618;51.166;10.322;2023-04-08T12:12:52;98080.38;;;7.35;69.64
26865;BME280;40618;51.166;10.322;2023-04-08T12:15:18;98087.28;;;7.35;70.15
26865;BME280;40618;51.166;10.322;2023-04-08T12:17:44;98092.47;;;7.32;69.97
26865;BME280;40618;51.166;10.322;2023-04-08T12:20:10;98092.44;;;7.33;69.79
26865;BME280;40618;51.166;10.322;2023-04-08T12:22:37;98095.88;;;7.37;69.89
26865;BME280;40618;51.166;10.322;2023-04-08T12:25:03;98088.13;;;7.38;70.12
26865;BME280;40618;51.166;10.322;2023-04-08T12:27:30;98088.03;;;7.48;70.26
26865;BME280;40618;51.166;10.322;2023-04-08T12:30:00;98092.28;;;7.56;69.96
26865;BME280;40618;51.166;10.322;2023-04-08T12:32:27;98092.22;;;7.64;70.35
26865;BME280;40618;51.166;10.322;2023-04-08T12:34:53;98091.28;;;7.71;70.16
26865;BME280;40618;51.166;10.322;2023-04-08T12:37:18;98098.16;;;7.74;69.80
26865;BME280;40618;51.166;10.322;2023-04-08T12:39:47;98098.97;;;7.77;69.87
26865;BME280;40618;51.166;10.322;2023-04-08T12:42:13;98096.47;;;7.71;69.76
26865;BME280;40618;51.166;10.322;2023-04-08T12:44:39;98099.06;;;7.67;69.38
26865;BME280;40618;51.166;10.322;2023-04-08T12:47:05;98095.63;;;7.66;69.79
26865;BME280;40618;51.166;10.322;2023-04-08T12:49:30;98093.91;;;7.65;69.77
26865;BME280;40618;51.166;10.322;2023-04-08T12:51:56;98090.47;;;7.66;70.01
26865;BME280;40618;51.166;10.322;2023-04-08T12:54:21;98098.19;;;7.68;69.32
26865;BME280;40618;51.166;10.322;2023-04-08T12:56:47;98101.63;;;7.67;70.09
26865;BME280;40618;51.166;10.322;2023-04-08T12:59:13;98098.16;;;7.72;70.09
26865;BME280;40618;51.166;10.322;2023-04-08T13:01:38;98102.50;;;7.67;70.25
26865;BME280;40618;51.166;10.322;2023-04-08T13:04:04;98097.44;;;7.56;70.22
26865;BME280;40618;51.166;10.322;2023-04-08T13:06:30;98088.84;;;7.53;70.01
26865;BME280;40618;51.166;10.322;2023-04-08T13:08:56;98102.63;;;7.49;70.16
26865;BME280;40618;51.166;10.322;2023-04-08T13:11:21;98099.22;;;7.43;70.33
26865;BME280;40618;51.166;10.322;2023-04-08T13:13:47;98102.69;;;7.41;70.34
26865;BME280;40618;51.166;10.322;2023-04-08T13:16:13;98103.56;;;7.35;69.86
26865;BME280;40618;51.166;10.322;2023-04-08T13:18:40;98107.94;;;7.24;69.95
26865;BME280;40618;51.166;10.322;2023-04-08T13:21:06;98102.81;;;7.24;70.23
26865;BME280;40618;51.166;10.322;2023-04-08T13:23:32;98113.19;;;7.11;70.14
26865;BME280;40618;51.166;10.322;2023-04-08T13:25:58;98114.91;;;7.08;70.27
26865;BME280;40618;51.166;10.322;2023-04-08T13:28:24;98122.66;;;7.05;70.56